Terminal Aerodrome Forecast
Issued by NWS

Current Version | Previous Version | Text Only | Print | Product List | Glossary On
Versions: 1 2 3 4 5 6 7 8 9 10 11 12 13 14 15 16 17 18 19 20 21
000
FTUS41 KRLX 261100
TAFCKB
TAF
KCKB 261129Z 2612/2712 13002KT P6SM SCT090
     FM261500 21007KT P6SM SCT050 SCT100
     FM262300 22004KT P6SM SCT120
     FM270400 19003KT P6SM BKN090
     FM270800 16002KT 4SM SHRA BR VCTS BKN045CB=

USA.gov is the U.S. government's official web portal to all federal, state and local government web resources and services.